createdAt,value
2022-10-11T00:37:57.159Z,8.96
2022-10-11T00:40:28.567Z,8.95
2022-10-11T00:52:21.195Z,8.91
2022-10-11T00:55:17.008Z,8.91
2022-10-11T00:57:49.607Z,8.89
2022-10-11T01:00:18.596Z,8.87
2022-10-11T01:03:09.006Z,8.85
2022-10-11T01:05:39.951Z,8.83
2022-10-11T01:08:08.405Z,8.82
2022-10-11T01:10:36.696Z,8.83
2022-10-11T01:13:35.446Z,8.78
2022-10-11T01:16:27.151Z,8.78
2022-10-11T01:19:13.765Z,8.77
2022-10-11T01:22:04.245Z,8.77
2022-10-11T01:25:13.291Z,8.73
2022-10-11T01:28:03.457Z,8.72
2022-10-11T01:30:34.444Z,8.71
2022-10-11T01:33:43.883Z,8.68
2022-10-11T01:36:33.592Z,8.68
2022-10-11T01:55:09.882Z,8.55
2022-10-11T02:03:03.687Z,8.48
2022-10-11T02:06:01.775Z,8.46
2022-10-11T02:14:33.676Z,8.40
2022-10-11T02:32:34.334Z,8.32
2022-10-11T02:35:12.599Z,8.32
2022-10-11T04:40:27.066Z,8.39
2022-10-11T04:42:54.827Z,8.38
2022-10-11T04:45:22.315Z,8.39
2022-10-11T04:47:49.695Z,8.38
2022-10-11T04:50:17.489Z,8.40
2022-10-11T04:52:44.683Z,8.39
2022-10-11T04:55:12.209Z,8.39
2022-10-11T04:57:39.990Z,8.38
2022-10-11T05:00:08.177Z,8.39
2022-10-11T05:02:35.548Z,8.38
2022-10-11T05:05:29.475Z,8.38
2022-10-11T05:13:39.223Z,8.37
2022-10-11T05:27:57.780Z,8.44
2022-10-11T05:39:50.042Z,8.52
2022-10-11T06:01:17.030Z,8.62
2022-10-11T06:09:13.364Z,8.71
2022-10-11T06:33:20.608Z,9.09
2022-10-11T08:12:11.145Z,11.30
2022-10-11T08:14:41.582Z,11.35
2022-10-11T08:19:08.243Z,11.44
2022-10-11T08:32:16.010Z,11.57
2022-10-11T08:47:52.155Z,11.99
2022-10-11T08:50:24.898Z,12.02
2022-10-11T09:04:36.764Z,12.34
2022-10-11T09:34:13.963Z,13.33
2022-10-11T09:37:03.831Z,13.76
2022-10-11T09:40:01.651Z,14.16
2022-10-11T09:43:21.073Z,14.46
2022-10-11T09:45:49.704Z,14.67
2022-10-11T09:49:03.331Z,14.99
2022-10-11T09:51:31.498Z,15.25
2022-10-11T09:54:38.879Z,15.31
2022-10-11T09:57:21.035Z,15.59
2022-10-11T10:05:48.603Z,15.59
2022-10-11T10:08:51.894Z,15.72
2022-10-11T10:13:03.524Z,15.75
2022-10-11T10:20:41.879Z,16.41
2022-10-11T10:23:23.211Z,16.44
2022-10-11T10:25:51.827Z,16.48
2022-10-11T10:28:26.892Z,16.40
2022-10-11T10:30:58.987Z,16.54
2022-10-11T10:33:35.333Z,16.46
2022-10-11T10:36:15.170Z,16.54
2022-10-11T10:38:52.384Z,16.67
2022-10-11T10:41:20.312Z,16.86
2022-10-11T10:43:59.062Z,16.81
2022-10-11T10:46:38.033Z,16.89
2022-10-11T10:49:54.812Z,17.22
2022-10-11T10:53:00.490Z,17.29
2022-10-11T10:55:58.544Z,17.26
2022-10-11T10:58:56.471Z,17.35
2022-10-11T11:01:32.385Z,17.45
2022-10-11T11:04:19.456Z,17.29
2022-10-11T11:07:12.622Z,17.16
2022-10-11T11:09:55.474Z,17.30
2022-10-11T11:12:37.698Z,17.39
2022-10-11T11:15:37.630Z,17.35
2022-10-11T11:18:40.028Z,17.31
2022-10-11T11:21:40.519Z,17.39
2022-10-11T11:24:31.385Z,17.60
2022-10-11T11:27:30.194Z,17.78
2022-10-11T11:30:09.611Z,17.99
2022-10-11T11:33:18.913Z,18.36
2022-10-11T11:35:53.300Z,18.27
2022-10-11T11:38:31.398Z,18.35
2022-10-11T11:41:05.259Z,18.26
2022-10-11T11:43:57.974Z,18.50
2022-10-11T11:46:34.455Z,18.45
2022-10-11T11:49:15.532Z,18.35
2022-10-11T11:51:46.502Z,18.27
2022-10-11T11:55:02.999Z,18.14
2022-10-11T12:47:39.669Z,17.05
2022-10-11T14:23:01.023Z,16.00
2022-10-11T14:25:28.873Z,16.00
2022-10-11T14:29:16.213Z,15.97
2022-10-11T14:31:43.967Z,15.93
2022-10-11T14:34:21.749Z,15.91
2022-10-11T14:36:50.474Z,15.88
2022-10-11T14:39:24.680Z,15.81
2022-10-11T14:41:53.868Z,15.79
2022-10-11T14:44:22.938Z,15.72
2022-10-11T14:52:05.903Z,15.55
2022-10-11T14:54:34.044Z,15.51
2022-10-11T14:57:04.511Z,15.43
2022-10-11T14:59:37.666Z,15.37
2022-10-11T15:02:08.615Z,15.35
2022-10-11T15:04:36.319Z,15.32
2022-10-11T15:07:04.886Z,15.27
2022-10-11T15:09:32.296Z,15.24
2022-10-11T15:11:59.690Z,15.20
2022-10-11T15:14:27.649Z,15.15
2022-10-11T15:16:56.280Z,15.10
2022-10-11T15:19:25.506Z,15.07
2022-10-11T15:21:53.066Z,15.03
2022-10-11T15:35:33.201Z,14.84
2022-10-11T15:38:58.907Z,14.80
2022-10-11T15:47:59.552Z,14.64
2022-10-11T15:55:22.394Z,14.50
2022-10-11T16:08:27.370Z,14.23
2022-10-11T16:10:55.557Z,14.18
2022-10-11T16:13:23.634Z,14.15
2022-10-11T16:15:51.248Z,14.09
2022-10-11T16:18:21.033Z,14.04
2022-10-11T16:20:51.891Z,13.99
2022-10-11T16:23:21.968Z,13.94
2022-10-11T16:26:02.518Z,13.88
2022-10-11T16:28:31.122Z,13.84
2022-10-11T16:31:00.200Z,13.77
2022-10-11T16:33:28.364Z,13.72
2022-10-11T16:36:15.592Z,13.68
2022-10-11T16:38:42.864Z,13.62
2022-10-11T16:41:10.557Z,13.55
2022-10-11T16:43:37.737Z,13.50
2022-10-11T16:46:05.470Z,13.46
2022-10-11T16:48:33.156Z,13.41
2022-10-11T16:51:08.218Z,13.35
2022-10-11T16:53:36.219Z,13.30
2022-10-11T16:56:08.846Z,13.26
2022-10-11T16:58:37.498Z,13.20
2022-10-11T17:01:11.044Z,13.14
2022-10-11T17:05:20.042Z,13.03
2022-10-11T17:47:42.214Z,12.31
2022-10-11T17:54:42.137Z,12.19
2022-10-11T17:57:09.398Z,12.19
2022-10-11T17:59:36.435Z,12.16
2022-10-11T18:02:03.869Z,12.13
2022-10-11T18:04:31.430Z,12.12
2022-10-11T18:06:59.161Z,12.10
2022-10-11T18:09:27.331Z,12.07
2022-10-11T18:22:06.660Z,11.96
2022-10-11T18:24:34.823Z,11.93
2022-10-11T18:27:04.033Z,11.91
2022-10-11T18:29:31.493Z,11.90
2022-10-11T18:31:59.136Z,11.86
2022-10-11T18:34:26.189Z,11.84
2022-10-11T18:36:53.576Z,11.80
2022-10-11T18:39:21.832Z,11.78
2022-10-11T18:41:49.766Z,11.74
2022-10-11T18:44:17.188Z,11.69
2022-10-11T18:46:45.678Z,11.67
2022-10-11T18:49:16.212Z,11.66
2022-10-11T18:51:46.854Z,11.61
2022-10-11T18:54:20.061Z,11.59
2022-10-11T18:56:49.155Z,11.56
2022-10-11T18:59:17.384Z,11.55
2022-10-11T19:01:45.825Z,11.53
2022-10-11T19:04:18.868Z,11.50
2022-10-11T19:06:49.194Z,11.49
2022-10-11T19:09:23.285Z,11.46
2022-10-11T19:11:54.831Z,11.44
2022-10-11T22:26:31.411Z,8.90
2022-10-11T22:29:00.490Z,8.87
2022-10-11T22:31:30.865Z,8.86
2022-10-11T22:34:04.486Z,8.82
2022-10-11T22:36:35.562Z,8.78
2022-10-11T22:39:08.302Z,8.75
2022-10-11T22:41:37.261Z,8.73
2022-10-11T22:44:05.048Z,8.69
2022-10-11T22:46:32.920Z,8.67
2022-10-11T22:49:00.503Z,8.64
2022-10-11T22:51:28.543Z,8.59
2022-10-11T22:53:55.982Z,8.57
2022-10-11T22:56:23.942Z,8.53
2022-10-11T22:58:51.907Z,8.50
2022-10-11T23:01:42.414Z,8.48
2022-10-11T23:04:17.791Z,8.48
2022-10-11T23:06:45.007Z,8.45
2022-10-11T23:09:12.277Z,8.43
2022-10-11T23:11:39.745Z,8.41
2022-10-11T23:14:07.136Z,8.39
2022-10-11T23:16:34.534Z,8.34
2022-10-11T23:19:03.169Z,8.30
2022-10-11T23:21:30.726Z,8.26
2022-10-11T23:23:57.893Z,8.24
2022-10-11T23:26:25.817Z,8.23
2022-10-11T23:28:59.701Z,8.22
2022-10-11T23:37:46.393Z,8.16
2022-10-11T23:40:16.784Z,8.11
2022-10-11T23:42:47.192Z,8.09
2022-10-11T23:45:16.389Z,8.07
2022-10-11T23:48:14.453Z,8.05
2022-10-11T23:50:46.156Z,8.03
2022-10-11T23:54:06.331Z,7.99
2022-10-11T23:56:40.962Z,7.99
2022-10-11T23:59:08.762Z,7.95
